Time;durP1;ratioP1;P1;durP2;ratioP2;P2;SDS_P1;SDS_P2;PMS_P1;PMS_P2;Temp;Humidity;BMP_temperature;BMP_pressure;BME280_temperature;BME280_humidity;BME280_pressure;Samples;Min_cycle;Max_cycle;Signal;HPM_P1;HPM_P2
2022/04/01 00:01:56;;;;;;;4.53;3.10;;;4.50;48.90;;;;;;5056380;28;20191;-63
2022/04/01 00:04:21;;;;;;;8.00;3.97;;;4.60;49.10;;;;;;5061715;28;20182;-64
2022/04/01 00:06:47;;;;;;;6.20;3.37;;;4.50;49.30;;;;;;5061238;28;20194;-64
2022/04/01 00:09:12;;;;;;;6.60;4.33;;;4.40;49.30;;;;;;5063123;28;20266;-65
2022/04/01 00:11:38;;;;;;;8.87;3.83;;;4.30;49.60;;;;;;5060468;28;20211;-63
2022/04/01 00:14:03;;;;;;;5.20;3.23;;;4.40;49.70;;;;;;5054095;28;20212;-64
2022/04/01 00:16:29;;;;;;;7.53;3.40;;;4.20;49.90;;;;;;5064819;28;20190;-64
2022/04/01 00:18:55;;;;;;;4.77;3.30;;;4.20;49.80;;;;;;5054590;28;20297;-65
2022/04/01 00:21:21;;;;;;;4.00;3.60;;;4.10;50.20;;;;;;5055314;28;20670;-65
2022/04/01 00:23:47;;;;;;;7.80;3.20;;;4.10;50.20;;;;;;5058609;28;20198;-65
2022/04/01 00:26:12;;;;;;;6.47;4.13;;;4.10;50.80;;;;;;5062317;28;20214;-66
2022/04/01 00:28:38;;;;;;;5.07;3.37;;;4.00;50.90;;;;;;5057295;28;20202;-65
2022/04/01 00:31:03;;;;;;;8.27;3.23;;;4.10;50.70;;;;;;5056374;28;20391;-66
2022/04/01 00:33:31;;;;;;;4.83;3.20;;;4.10;50.60;;;;;;5046164;28;20594;-67
2022/04/01 00:35:56;;;;;;;5.47;3.67;;;4.20;50.70;;;;;;5050716;28;20588;-66
2022/04/01 00:38:22;;;;;;;6.87;3.53;;;4.20;50.50;;;;;;5045105;28;20229;-66
2022/04/01 00:40:50;;;;;;;5.67;3.30;;;4.10;50.80;;;;;;5054883;28;20213;-66
2022/04/01 00:43:16;;;;;;;5.77;3.67;;;4.00;50.90;;;;;;5054539;28;20223;-67
2022/04/01 00:45:41;;;;;;;3.37;2.67;;;3.90;50.90;;;;;;5066066;28;20182;-66
2022/04/01 00:48:07;;;;;;;4.77;3.10;;;3.80;50.90;;;;;;5064230;28;20300;-67
2022/04/01 00:50:33;;;;;;;10.07;3.10;;;3.90;51.10;;;;;;5063067;28;20313;-67
2022/04/01 00:53:00;;;;;;;4.60;3.63;;;4.00;50.80;;;;;;5062843;28;20198;-68
2022/04/01 00:55:29;;;;;;;4.80;3.00;;;4.00;50.80;;;;;;5051040;28;20269;-67
2022/04/01 00:57:55;;;;;;;4.23;3.17;;;3.80;51.10;;;;;;5055346;28;20203;-67
2022/04/01 01:00:20;;;;;;;4.97;2.87;;;3.90;50.90;;;;;;5064630;28;20267;-67
2022/04/01 01:02:46;;;;;;;4.50;2.90;;;4.00;51.10;;;;;;5063085;28;20661;-68
2022/04/01 01:05:11;;;;;;;4.23;3.60;;;3.90;50.80;;;;;;5061830;28;20201;-67
2022/04/01 01:07:42;;;;;;;4.23;2.70;;;3.60;51.10;;;;;;5055202;28;20242;-67
2022/04/01 01:10:10;;;;;;;4.77;3.20;;;3.70;51.20;;;;;;5050291;28;20272;-67
2022/04/01 01:12:37;;;;;;;3.77;2.83;;;3.70;51.30;;;;;;5052331;28;20260;-67
2022/04/01 01:15:10;;;;;;;4.13;3.17;;;3.60;51.40;;;;;;5065623;28;20750;-67
2022/04/01 01:17:39;;;;;;;4.70;2.77;;;3.60;51.20;;;;;;5058342;28;20247;-67
2022/04/01 01:20:12;;;;;;;3.77;2.90;;;3.50;51.30;;;;;;5045684;28;20310;-67
2022/04/01 01:22:39;;;;;;;8.33;3.00;;;3.50;51.50;;;;;;5062287;28;20198;-68
2022/04/01 01:25:10;;;;;;;3.67;3.13;;;3.60;51.40;;;;;;5059775;28;20222;-68
2022/04/01 01:27:36;;;;;;;5.07;3.03;;;3.50;51.30;;;;;;5054531;28;20219;-66
2022/04/01 01:30:03;;;;;;;5.03;3.20;;;3.50;51.30;;;;;;5048666;28;20226;-66
2022/04/01 01:32:29;;;;;;;3.93;2.70;;;3.60;51.20;;;;;;5062996;28;20293;-66
2022/04/01 01:34:55;;;;;;;4.83;3.13;;;3.50;51.60;;;;;;5065350;28;20277;-66
2022/04/01 01:37:21;;;;;;;3.80;2.93;;;3.50;51.60;;;;;;5054354;28;20203;-66
2022/04/01 01:39:46;;;;;;;5.03;3.00;;;3.50;51.90;;;;;;5057206;28;20240;-67
2022/04/01 01:42:12;;;;;;;3.90;2.70;;;3.50;51.70;;;;;;5048254;28;20720;-66
2022/04/01 01:44:38;;;;;;;6.07;3.13;;;3.30;51.60;;;;;;5065090;28;20182;-65
2022/04/01 01:47:04;;;;;;;6.63;2.90;;;3.20;51.90;;;;;;5054940;28;20190;-63
2022/04/01 01:49:30;;;;;;;5.57;2.57;;;3.30;51.80;;;;;;5054344;28;20256;-63
2022/04/01 01:54:44;;;;;;;3.10;2.57;;;3.30;52.00;;;;;;5056450;28;20188;-63
2022/04/01 01:57:13;;;;;;;9.13;3.80;;;3.30;52.00;;;;;;5062639;28;20674;-63
2022/04/01 01:59:38;;;;;;;4.37;3.10;;;3.30;51.90;;;;;;5058661;28;20179;-64
2022/04/01 02:02:05;;;;;;;5.23;3.17;;;3.30;51.90;;;;;;5053004;28;20205;-66
2022/04/01 02:04:35;;;;;;;5.43;3.13;;;3.20;52.10;;;;;;5064812;28;20188;-67
2022/04/01 02:07:04;;;;;;;8.23;3.03;;;3.20;52.40;;;;;;5054533;28;20928;-66
2022/04/01 02:09:29;;;;;;;9.40;3.57;;;3.30;52.30;;;;;;5054425;28;20700;-64
2022/04/01 02:11:55;;;;;;;6.73;4.03;;;3.10;52.30;;;;;;5054461;28;20572;-67
2022/04/01 02:14:21;;;;;;;5.37;3.30;;;3.20;52.40;;;;;;5057180;28;20929;-67
2022/04/01 02:16:46;;;;;;;4.57;3.50;;;3.20;52.50;;;;;;5051785;28;20249;-67
2022/04/01 02:19:13;;;;;;;6.30;2.97;;;3.20;52.60;;;;;;5056176;28;20173;-67
2022/04/01 02:21:39;;;;;;;4.83;3.40;;;3.00;52.90;;;;;;5061592;28;20205;-67
2022/04/01 02:24:10;;;;;;;5.03;3.23;;;3.00;52.90;;;;;;5048639;28;20202;-66
2022/04/01 02:26:35;;;;;;;4.37;3.27;;;3.00;53.30;;;;;;5054828;28;20225;-66
2022/04/01 02:29:03;;;;;;;3.57;3.20;;;3.00;53.10;;;;;;5052955;28;20218;-66
2022/04/01 02:31:30;;;;;;;4.40;3.10;;;3.00;53.10;;;;;;5051512;28;20737;-66
2022/04/01 02:33:56;;;;;;;9.27;3.30;;;3.10;53.20;;;;;;5057133;28;20198;-67
2022/04/01 02:36:21;;;;;;;6.30;4.00;;;3.00;52.90;;;;;;5049780;28;20209;-67
2022/04/01 02:38:49;;;;;;;4.00;3.40;;;2.80;53.30;;;;;;5052129;28;20206;-67
2022/04/01 02:41:15;;;;;;;5.50;3.30;;;2.80;53.90;;;;;;5052542;28;20724;-67
2022/04/01 02:43:41;;;;;;;5.20;3.90;;;2.90;53.80;;;;;;5061944;28;20742;-67
2022/04/01 02:46:10;;;;;;;4.23;3.67;;;2.80;53.40;;;;;;5051297;28;20198;-66
2022/04/01 02:48:35;;;;;;;5.37;3.00;;;2.70;53.60;;;;;;5044753;28;20689;-65
2022/04/01 02:51:01;;;;;;;6.37;3.23;;;2.70;54.00;;;;;;5045184;28;20231;-65
2022/04/01 02:53:26;;;;;;;7.07;3.60;;;2.70;53.90;;;;;;5057013;28;20206;-66
2022/04/01 02:55:52;;;;;;;6.10;3.27;;;2.60;53.70;;;;;;5053350;28;20198;-66
2022/04/01 02:58:18;;;;;;;3.60;3.30;;;2.70;53.80;;;;;;5045043;28;20211;-66
2022/04/01 03:00:45;;;;;;;5.70;3.27;;;2.80;53.90;;;;;;5062358;28;20603;-66
2022/04/01 03:03:11;;;;;;;5.20;3.53;;;2.80;54.30;;;;;;5063079;28;20206;-66
2022/04/01 03:05:39;;;;;;;5.03;4.33;;;2.70;53.50;;;;;;5067543;28;20627;-66
2022/04/01 03:08:05;;;;;;;10.33;3.33;;;2.60;54.20;;;;;;5047835;28;20230;-66
2022/04/01 03:10:40;;;;;;;5.90;3.30;;;2.60;54.10;;;;;;5053556;28;20644;-66
2022/04/01 03:13:07;;;;;;;4.07;3.27;;;2.70;54.10;;;;;;5055309;28;20687;-66
2022/04/01 03:15:33;;;;;;;6.30;3.93;;;2.80;53.80;;;;;;5057396;28;20226;-65
2022/04/01 03:17:59;;;;;;;5.37;3.60;;;2.80;54.10;;;;;;5056996;28;20202;-65
2022/04/01 03:20:25;;;;;;;6.37;3.13;;;2.70;53.80;;;;;;5057715;28;20203;-67
2022/04/01 03:22:52;;;;;;;6.07;3.80;;;2.70;54.20;;;;;;5052528;28;20211;-67
2022/04/01 03:25:19;;;;;;;8.10;3.23;;;2.50;54.20;;;;;;5067062;28;20700;-66
2022/04/01 03:27:46;;;;;;;4.07;3.60;;;2.50;54.70;;;;;;5064994;28;20206;-66
2022/04/01 03:30:13;;;;;;;6.40;3.50;;;2.50;54.60;;;;;;5054607;28;20293;-66
2022/04/01 03:32:39;;;;;;;5.67;4.00;;;2.70;54.80;;;;;;5056111;28;20201;-65
2022/04/01 03:35:08;;;;;;;4.53;3.90;;;2.70;54.20;;;;;;5056335;28;20206;-65
2022/04/01 03:37:34;;;;;;;5.00;3.93;;;2.70;54.00;;;;;;5050443;28;20195;-66
2022/04/01 03:40:00;;;;;;;5.63;3.37;;;2.60;54.50;;;;;;5064669;28;20182;-66
2022/04/01 03:42:30;;;;;;;5.23;4.07;;;2.50;54.60;;;;;;5051516;28;20710;-66
2022/04/01 03:44:56;;;;;;;3.73;3.23;;;2.50;54.40;;;;;;5067321;28;20198;-66
2022/04/01 03:47:26;;;;;;;6.77;3.80;;;2.60;54.40;;;;;;5064836;28;20233;-67
2022/04/01 03:49:58;;;;;;;7.57;3.90;;;2.60;54.40;;;;;;5057135;28;20305;-67
2022/04/01 03:52:24;;;;;;;7.87;4.37;;;2.40;54.50;;;;;;5062343;28;20664;-66
2022/04/01 03:54:55;;;;;;;4.00;3.60;;;2.30;54.60;;;;;;5054314;28;20193;-66
2022/04/01 03:57:32;;;;;;;5.53;3.60;;;2.30;54.90;;;;;;5056513;28;20221;-65
2022/04/01 03:59:59;;;;;;;4.27;3.57;;;2.30;54.90;;;;;;5052085;28;20276;-66
2022/04/01 04:02:25;;;;;;;3.60;3.17;;;2.30;55.10;;;;;;5064511;28;20309;-66
2022/04/01 04:04:54;;;;;;;4.77;3.20;;;2.40;54.90;;;;;;5066980;28;20236;-65
2022/04/01 04:07:19;;;;;;;6.30;4.13;;;2.40;54.40;;;;;;5056239;28;20227;-65
2022/04/01 04:09:45;;;;;;;5.17;3.43;;;2.40;54.60;;;;;;5062003;28;20248;-65
2022/04/01 04:12:13;;;;;;;6.43;3.80;;;2.40;54.60;;;;;;5049063;28;20194;-65
2022/04/01 04:14:42;;;;;;;5.63;4.00;;;2.20;54.70;;;;;;5063861;28;20189;-64
2022/04/01 04:17:12;;;;;;;4.67;3.67;;;2.20;55.10;;;;;;5057284;28;20609;-68
2022/04/01 04:20:01;;;;;;;6.93;3.83;;;2.20;55.30;;;;;;5057250;28;20178;-67
2022/04/01 04:22:49;;;;;;;7.20;3.43;;;2.00;55.50;;;;;;5061521;28;20202;-67
2022/04/01 04:25:21;;;;;;;4.40;3.77;;;1.90;55.80;;;;;;5049809;28;20360;-67
2022/04/01 04:28:14;;;;;;;4.23;3.60;;;2.00;56.30;;;;;;5053570;28;20202;-67
2022/04/01 04:30:49;;;;;;;6.17;3.37;;;2.10;56.20;;;;;;5060508;28;20229;-67
2022/04/01 04:33:17;;;;;;;4.80;3.33;;;2.00;56.00;;;;;;5060427;28;20240;-67
2022/04/01 04:35:44;;;;;;;7.07;3.73;;;2.10;56.30;;;;;;5058479;28;20244;-66
2022/04/01 04:38:12;;;;;;;3.97;3.33;;;2.20;56.50;;;;;;5063852;28;20202;-66
2022/04/01 04:40:39;;;;;;;9.63;3.60;;;2.10;56.40;;;;;;5052656;28;20705;-67
2022/04/01 04:43:05;;;;;;;6.27;2.97;;;2.10;56.70;;;;;;5044515;28;20203;-66
2022/04/01 04:45:30;;;;;;;3.20;2.90;;;2.10;56.80;;;;;;5050337;28;20197;-66
2022/04/01 04:47:58;;;;;;;4.00;3.13;;;2.20;56.40;;;;;;5063914;28;20241;-67
2022/04/01 04:50:23;;;;;;;6.90;4.30;;;2.20;56.50;;;;;;5064600;28;20229;-66
2022/04/01 04:52:51;;;;;;;6.10;3.00;;;2.00;57.00;;;;;;5064060;28;20206;-66
2022/04/01 04:55:18;;;;;;;4.17;2.80;;;1.90;56.90;;;;;;5065291;28;20194;-67
2022/04/01 04:57:45;;;;;;;4.03;3.00;;;2.00;57.60;;;;;;5063660;28;20686;-67
2022/04/01 05:00:12;;;;;;;7.33;3.00;;;2.10;57.40;;;;;;5065539;28;20202;-66
2022/04/01 05:03:08;;;;;;;5.73;4.00;;;2.20;57.40;;;;;;5063515;28;20676;-66
2022/04/01 05:05:43;;;;;;;6.47;3.57;;;2.20;57.50;;;;;;5059986;28;20205;-66
2022/04/01 05:08:48;;;;;;;3.53;2.70;;;2.10;57.50;;;;;;5061125;28;20973;-66
2022/04/01 05:11:22;;;;;;;6.03;3.10;;;2.10;57.80;;;;;;5053333;28;20214;-67
2022/04/01 05:14:05;;;;;;;6.87;3.13;;;2.20;57.50;;;;;;5057722;28;20218;-67
2022/04/01 05:16:36;;;;;;;3.73;3.17;;;2.10;57.80;;;;;;5057043;28;20277;-67
2022/04/01 05:19:06;;;;;;;6.03;3.53;;;1.90;58.10;;;;;;5057662;28;20799;-66
2022/04/01 05:21:41;;;;;;;5.40;2.87;;;1.90;58.30;;;;;;5058860;28;20205;-67
2022/04/01 05:24:08;;;;;;;4.93;3.63;;;2.00;58.60;;;;;;5055836;28;20212;-67
2022/04/01 05:26:45;;;;;;;5.63;3.00;;;2.10;58.30;;;;;;5065232;28;20242;-66
2022/04/01 05:29:17;;;;;;;6.23;2.87;;;2.20;58.50;;;;;;5058624;28;20293;-67
2022/04/01 05:32:03;;;;;;;5.53;3.10;;;2.00;58.20;;;;;;5054342;28;20218;-67
2022/04/01 05:34:33;;;;;;;5.60;2.83;;;1.90;58.50;;;;;;5051840;28;20649;-67
2022/04/01 05:36:59;;;;;;;6.53;2.63;;;2.00;59.00;;;;;;5051591;28;20198;-67
2022/04/01 05:39:29;;;;;;;7.60;3.50;;;2.00;59.10;;;;;;5065050;28;20178;-67
2022/04/01 05:41:56;;;;;;;5.37;3.47;;;2.10;59.20;;;;;;5047954;28;20569;-66
2022/04/01 05:44:24;;;;;;;5.07;2.97;;;2.00;59.10;;;;;;5056622;28;20191;-66
2022/04/01 05:46:53;;;;;;;3.97;3.03;;;2.10;59.20;;;;;;5062450;28;20193;-67
2022/04/01 05:49:19;;;;;;;3.77;2.73;;;2.20;59.20;;;;;;5053282;28;20190;-66
2022/04/01 05:51:48;;;;;;;8.00;3.20;;;2.10;59.00;;;;;;5059054;28;20222;-67
2022/04/01 05:54:19;;;;;;;4.27;2.93;;;2.10;59.30;;;;;;5064828;28;20186;-67
2022/04/01 05:56:45;;;;;;;3.30;2.93;;;2.10;59.60;;;;;;5053877;28;20202;-67
2022/04/01 05:59:13;;;;;;;5.40;3.87;;;2.10;59.50;;;;;;5044700;28;20613;-67
2022/04/01 06:01:45;;;;;;;8.73;2.80;;;2.10;59.90;;;;;;5047637;28;20221;-67
2022/04/01 06:04:34;;;;;;;6.07;2.93;;;1.90;59.90;;;;;;5065276;28;20236;-65
2022/04/01 06:07:09;;;;;;;3.50;2.77;;;2.00;60.60;;;;;;5058073;28;20649;-64
2022/04/01 06:09:36;;;;;;;4.17;2.77;;;2.00;60.50;;;;;;5047036;28;20897;-63
2022/04/01 06:12:12;;;;;;;3.63;2.87;;;1.90;60.50;;;;;;5048743;28;20217;-66
2022/04/01 06:15:17;;;;;;;3.27;2.47;;;2.00;60.60;;;;;;5047848;28;20189;-65
2022/04/01 06:17:42;;;;;;;4.93;3.03;;;2.30;60.00;;;;;;5061847;28;20194;-65
2022/04/01 06:20:08;;;;;;;3.57;2.80;;;2.30;59.70;;;;;;5064243;28;20205;-66
2022/04/01 06:22:42;;;;;;;7.57;2.80;;;2.40;60.00;;;;;;5042947;28;20280;-65
2022/04/01 06:25:18;;;;;;;7.50;2.70;;;2.30;59.60;;;;;;5052865;28;20203;-65
2022/04/01 06:27:55;;;;;;;6.00;2.80;;;2.30;59.80;;;;;;5053954;28;20259;-66
2022/04/01 06:30:21;;;;;;;8.37;3.30;;;2.40;59.80;;;;;;5060805;28;20583;-65
2022/04/01 06:33:16;;;;;;;5.50;2.77;;;2.40;59.60;;;;;;5053232;28;20202;-66
2022/04/01 06:36:03;;;;;;;4.63;2.50;;;2.60;59.70;;;;;;5067744;28;20272;-66
2022/04/01 06:38:40;;;;;;;3.70;2.67;;;2.60;59.20;;;;;;5056734;28;20209;-64
2022/04/01 06:41:20;;;;;;;7.10;2.60;;;2.70;59.80;;;;;;5058462;28;20193;-68
2022/04/01 06:43:47;;;;;;;2.77;2.50;;;2.70;59.60;;;;;;5060114;28;20222;-67
2022/04/01 06:46:12;;;;;;;4.30;3.23;;;2.80;59.40;;;;;;5058598;28;20202;-66
2022/04/01 06:48:38;;;;;;;3.47;2.87;;;2.80;58.90;;;;;;5062636;28;20206;-66
2022/04/01 06:51:04;;;;;;;3.77;2.43;;;2.90;58.70;;;;;;5048506;28;20237;-68
2022/04/01 06:53:29;;;;;;;5.90;2.73;;;2.80;58.40;;;;;;5063729;28;20202;-66
2022/04/01 06:55:55;;;;;;;2.70;2.47;;;2.80;58.70;;;;;;5057420;28;20255;-67
2022/04/01 06:58:25;;;;;;;3.90;2.50;;;3.00;58.40;;;;;;5047145;28;20677;-66
2022/04/01 07:00:51;;;;;;;4.93;2.73;;;3.20;58.40;;;;;;5067590;28;20194;-67
2022/04/01 07:03:17;;;;;;;3.97;3.17;;;3.00;58.20;;;;;;5049336;28;20820;-67
2022/04/01 07:05:43;;;;;;;4.50;2.57;;;3.20;58.20;;;;;;5050709;28;20190;-67
2022/04/01 07:08:08;;;;;;;2.87;2.37;;;3.40;58.00;;;;;;5049120;28;20199;-66
2022/04/01 07:10:34;;;;;;;3.20;1.90;;;3.40;57.30;;;;;;5053883;28;20597;-67
2022/04/01 07:13:00;;;;;;;3.80;3.03;;;3.40;57.00;;;;;;5047783;28;20240;-66
2022/04/01 07:15:26;;;;;;;6.07;2.70;;;3.40;57.50;;;;;;5056996;28;20302;-65
2022/04/01 07:17:52;;;;;;;3.70;2.50;;;3.20;57.40;;;;;;5058508;28;20205;-67
2022/04/01 07:20:18;;;;;;;5.53;2.33;;;3.50;57.90;;;;;;5060250;28;20198;-66
2022/04/01 07:22:44;;;;;;;5.27;2.50;;;3.70;56.70;;;;;;5061563;28;20579;-67
2022/04/01 07:25:10;;;;;;;5.17;2.57;;;3.80;56.80;;;;;;5064334;28;20206;-68
2022/04/01 07:27:36;;;;;;;3.13;2.27;;;3.70;56.60;;;;;;5057022;28;20542;-66
2022/04/01 07:30:02;;;;;;;5.33;2.83;;;3.80;56.60;;;;;;5054124;28;20245;-66
2022/04/01 07:32:32;;;;;;;5.73;2.80;;;3.80;56.90;;;;;;5064824;28;20209;-66
2022/04/01 07:34:59;;;;;;;10.63;3.33;;;3.60;56.10;;;;;;5067544;28;20189;-67
2022/04/01 07:37:25;;;;;;;2.60;2.20;;;3.80;56.70;;;;;;5057086;28;20202;-66
2022/04/01 07:39:52;;;;;;;6.13;2.97;;;3.90;56.50;;;;;;5050884;28;20190;-67
2022/04/01 07:42:21;;;;;;;2.37;2.17;;;4.10;55.60;;;;;;5055929;28;20223;-69
2022/04/01 07:44:50;;;;;;;4.03;2.20;;;4.00;55.30;;;;;;5066752;28;20182;-67
2022/04/01 07:47:18;;;;;;;2.83;2.37;;;4.00;55.20;;;;;;5065078;28;20217;-63
2022/04/01 07:49:45;;;;;;;7.60;2.10;;;4.30;55.30;;;;;;5062324;28;20223;-64
2022/04/01 07:52:12;;;;;;;4.73;2.33;;;4.50;55.00;;;;;;5049430;28;20217;-65
2022/04/01 07:54:40;;;;;;;11.23;2.67;;;4.20;53.70;;;;;;5066790;28;20175;-64
2022/04/01 07:57:07;;;;;;;5.53;2.37;;;4.30;54.60;;;;;;5053970;28;20210;-66
2022/04/01 07:59:32;;;;;;;5.53;2.40;;;4.20;54.50;;;;;;5052449;28;20201;-66
2022/04/01 08:01:58;;;;;;;3.07;2.77;;;4.30;55.10;;;;;;5064848;28;20191;-64
2022/04/01 08:04:27;;;;;;;4.60;2.53;;;4.60;54.50;;;;;;5055119;28;20202;-64
2022/04/01 08:06:54;;;;;;;2.80;2.60;;;4.80;54.30;;;;;;5058206;28;20217;-65
2022/04/01 08:09:20;;;;;;;7.73;2.43;;;4.90;54.00;;;;;;5052023;28;20344;-65
2022/04/01 08:11:45;;;;;;;6.67;2.43;;;5.00;53.20;;;;;;5049862;28;20689;-65
2022/04/01 08:14:12;;;;;;;6.17;2.70;;;5.00;52.60;;;;;;5064181;28;20195;-65
2022/04/01 08:16:37;;;;;;;7.33;2.70;;;4.70;51.60;;;;;;5061971;28;20186;-64
2022/04/01 08:19:03;;;;;;;6.57;2.17;;;4.80;51.30;;;;;;5060701;28;20688;-65
2022/04/01 08:21:30;;;;;;;6.67;2.10;;;4.70;50.80;;;;;;5056046;28;20202;-64
2022/04/01 08:23:56;;;;;;;3.87;2.23;;;4.90;50.90;;;;;;5056785;28;20530;-66
2022/04/01 08:26:24;;;;;;;4.10;1.90;;;5.10;50.40;;;;;;5057194;28;20229;-68
2022/04/01 08:28:50;;;;;;;7.13;2.37;;;5.10;50.10;;;;;;5054767;28;20205;-70
2022/04/01 08:31:16;;;;;;;8.10;2.47;;;5.10;50.40;;;;;;5060439;28;20205;-57
2022/04/01 08:33:41;;;;;;;4.37;2.00;;;5.20;50.50;;;;;;5065857;28;20222;-56
2022/04/01 08:36:07;;;;;;;4.57;1.87;;;5.60;50.50;;;;;;5060453;28;20359;-57
2022/04/01 08:38:32;;;;;;;3.07;1.90;;;5.50;49.40;;;;;;5063272;28;20216;-57
2022/04/01 08:40:58;;;;;;;7.87;2.53;;;5.50;50.00;;;;;;5059773;28;20255;-57
2022/04/01 08:43:29;;;;;;;3.87;2.20;;;5.40;48.60;;;;;;5062290;28;20220;-70
2022/04/01 08:45:56;;;;;;;2.23;1.83;;;5.50;49.50;;;;;;5055834;28;20190;-57
2022/04/01 08:48:23;;;;;;;3.00;2.17;;;5.40;48.30;;;;;;5053722;28;20257;-57
2022/04/01 08:50:50;;;;;;;5.77;2.50;;;5.60;48.80;;;;;;5053186;28;20214;-57
2022/04/01 08:53:15;;;;;;;1.90;1.80;;;5.70;48.40;;;;;;5058502;28;20194;-58
2022/04/01 08:55:46;;;;;;;4.97;2.40;;;6.00;50.10;;;;;;5056787;28;20198;-56
2022/04/01 08:58:11;;;;;;;7.67;2.53;;;6.00;47.00;;;;;;5058103;28;20207;-57
2022/04/01 09:00:37;;;;;;;3.27;2.30;;;5.80;47.00;;;;;;5053756;28;20199;-57
2022/04/01 09:03:06;;;;;;;4.40;2.07;;;6.20;46.90;;;;;;5056022;28;20229;-57
2022/04/01 09:05:32;;;;;;;3.20;2.57;;;6.30;46.20;;;;;;5058206;28;20347;-57
2022/04/01 09:08:04;;;;;;;7.53;5.60;;;6.40;46.40;;;;;;5053888;28;20686;-57
2022/04/01 09:10:31;;;;;;;3.63;2.67;;;6.40;46.10;;;;;;5053350;28;20214;-57
2022/04/01 09:12:57;;;;;;;4.97;2.43;;;6.40;45.40;;;;;;5054921;28;20213;-58
2022/04/01 09:15:37;;;;;;;5.80;2.80;;;6.40;43.70;;;;;;5052461;28;20230;-56
2022/04/01 09:18:03;;;;;;;2.00;1.90;;;6.50;43.90;;;;;;5055423;28;20182;-57
2022/04/01 09:20:45;;;;;;;4.33;2.17;;;6.40;43.50;;;;;;5059000;28;20202;-58
2022/04/01 09:23:11;;;;;;;4.77;2.23;;;6.30;44.00;;;;;;5062749;28;20257;-58
2022/04/01 09:25:36;;;;;;;5.50;2.43;;;6.50;44.00;;;;;;5056034;28;20211;-57
2022/04/01 09:28:02;;;;;;;8.50;2.83;;;6.70;43.10;;;;;;5058761;28;20653;-57
2022/04/01 09:30:30;;;;;;;3.73;1.80;;;6.70;43.10;;;;;;5056508;28;20241;-57
2022/04/01 09:32:58;;;;;;;10.00;1.93;;;6.60;41.80;;;;;;5053784;28;20266;-55
2022/04/01 09:35:26;;;;;;;3.77;2.10;;;6.60;43.90;;;;;;5058859;28;20206;-55
2022/04/01 09:38:07;;;;;;;4.47;2.10;;;6.90;42.60;;;;;;5055343;28;20190;-56
2022/04/01 09:40:35;;;;;;;2.90;2.30;;;6.60;43.20;;;;;;5056059;28;20258;-58
2022/04/01 09:43:00;;;;;;;7.43;2.63;;;6.70;43.30;;;;;;5047627;28;20725;-57
2022/04/01 09:45:32;;;;;;;2.40;2.03;;;6.80;42.90;;;;;;5052290;28;20431;-57
2022/04/01 09:48:02;;;;;;;3.70;2.33;;;6.50;42.50;;;;;;5059794;28;20187;-57
2022/04/01 09:50:30;;;;;;;4.50;2.20;;;6.60;43.50;;;;;;5054230;28;20266;-58
2022/04/01 09:53:16;;;;;;;7.13;2.27;;;6.50;43.40;;;;;;5053958;28;20191;-57
2022/04/01 09:55:47;;;;;;;4.07;2.50;;;6.50;43.60;;;;;;5062382;28;20512;-56
2022/04/01 09:58:15;;;;;;;2.60;2.37;;;6.60;42.90;;;;;;5060296;28;20201;-59
2022/04/01 10:00:41;;;;;;;5.63;2.67;;;6.90;44.80;;;;;;5059444;28;20202;-65
2022/04/01 10:03:09;;;;;;;2.77;2.37;;;6.80;43.00;;;;;;5058217;28;20194;-57
2022/04/01 10:05:36;;;;;;;2.63;2.13;;;6.60;42.10;;;;;;5053563;28;20232;-59
2022/04/01 10:08:04;;;;;;;2.60;2.40;;;6.90;43.00;;;;;;5066566;28;20194;-57
2022/04/01 10:10:30;;;;;;;2.40;2.20;;;6.60;42.90;;;;;;5054657;28;20240;-56
2022/04/01 10:13:32;;;;;;;5.90;2.60;;;7.00;44.10;;;;;;5068819;28;20189;-56
2022/04/01 10:15:58;;;;;;;2.70;2.43;;;7.30;43.00;;;;;;5055984;28;20206;-57
2022/04/01 10:18:25;;;;;;;4.50;2.50;;;7.20;42.70;;;;;;5059354;28;20657;-55
2022/04/01 10:20:55;;;;;;;2.77;2.47;;;6.90;42.60;;;;;;5061691;28;20263;-57
2022/04/01 10:23:23;;;;;;;4.13;2.63;;;7.00;43.20;;;;;;5059092;28;20186;-59
2022/04/01 10:25:58;;;;;;;4.07;1.77;;;7.20;42.10;;;;;;5061600;28;20205;-57
2022/04/01 10:28:24;;;;;;;5.47;2.37;;;7.60;43.20;;;;;;5059558;28;20265;-58
2022/04/01 10:30:54;;;;;;;6.27;2.67;;;8.00;42.20;;;;;;5056595;28;20649;-58
2022/04/01 10:33:33;;;;;;;2.93;2.53;;;7.90;40.60;;;;;;5064943;28;20187;-57
2022/04/01 10:35:59;;;;;;;5.93;2.27;;;7.90;40.90;;;;;;5058556;28;20278;-57
2022/04/01 10:38:29;;;;;;;4.50;2.90;;;7.90;40.10;;;;;;5058757;28;20194;-58
2022/04/01 10:41:12;;;;;;;6.97;2.70;;;8.30;41.90;;;;;;5059001;28;20200;-57
2022/04/01 10:43:40;;;;;;;5.07;2.27;;;8.70;41.30;;;;;;5064761;28;20214;-57
2022/04/01 10:46:11;;;;;;;3.97;2.10;;;8.70;41.20;;;;;;5058365;28;20227;-58
2022/04/01 10:51:36;;;;;;;3.83;1.80;;;8.30;40.10;;;;;;5055003;28;20236;-58
2022/04/01 10:54:16;;;;;;;7.40;2.43;;;8.40;39.30;;;;;;5058153;28;20199;-58
2022/04/01 10:56:43;;;;;;;4.70;2.27;;;8.80;39.80;;;;;;5062864;28;20232;-57
2022/04/01 10:59:19;;;;;;;7.53;2.70;;;9.30;39.10;;;;;;5054715;28;20194;-70
2022/04/01 11:01:53;;;;;;;4.83;2.87;;;9.40;38.60;;;;;;5052259;28;20206;-59
2022/04/01 11:04:19;;;;;;;3.23;2.10;;;9.50;38.50;;;;;;5062886;28;20197;-59
2022/04/01 11:07:14;;;;;;;2.87;2.23;;;9.30;38.10;;;;;;5061181;28;20445;-59
2022/04/01 11:09:53;;;;;;;3.73;2.03;;;9.00;36.70;;;;;;5062225;28;20195;-59
2022/04/01 11:12:25;;;;;;;3.70;1.80;;;9.20;36.70;;;;;;5059591;28;20211;-59
2022/04/01 11:14:53;;;;;;;4.50;2.40;;;9.20;37.10;;;;;;5052573;28;20909;-59
2022/04/01 11:17:38;;;;;;;5.73;2.33;;;10.00;37.20;;;;;;5055899;28;20223;-59
2022/04/01 11:20:05;;;;;;;5.40;2.43;;;10.10;34.60;;;;;;5053732;28;20224;-59
2022/04/01 11:22:46;;;;;;;3.37;1.97;;;9.90;35.90;;;;;;5061539;28;20176;-59
2022/04/01 11:25:13;;;;;;;5.93;2.53;;;10.10;35.40;;;;;;5065828;28;20205;-60
2022/04/01 11:28:11;;;;;;;2.97;1.90;;;10.60;34.40;;;;;;5055265;28;20217;-59
2022/04/01 11:30:40;;;;;;;5.77;2.63;;;10.80;35.20;;;;;;5057543;28;20254;-60
2022/04/01 11:33:16;;;;;;;3.27;1.97;;;11.20;34.40;;;;;;5057997;28;20195;-59
2022/04/01 11:35:53;;;;;;;3.70;2.00;;;11.20;33.70;;;;;;5061958;28;20316;-59
2022/04/01 11:38:22;;;;;;;3.53;2.20;;;11.10;33.70;;;;;;5064438;28;20271;-59
2022/04/01 11:40:50;;;;;;;2.33;2.00;;;11.20;33.30;;;;;;5056426;28;20695;-59
2022/04/01 11:43:17;;;;;;;3.43;2.23;;;10.90;32.70;;;;;;5055367;28;20662;-60
2022/04/01 11:45:48;;;;;;;3.20;1.97;;;10.90;32.70;;;;;;5058236;28;20700;-58
2022/04/01 11:48:14;;;;;;;6.30;2.27;;;11.00;32.70;;;;;;5055691;28;20206;-58
2022/04/01 11:50:45;;;;;;;3.67;1.97;;;11.60;33.10;;;;;;5060447;28;20611;-57
2022/04/01 11:53:21;;;;;;;4.23;2.03;;;11.70;31.40;;;;;;5058063;28;20195;-58
2022/04/01 11:55:47;;;;;;;3.90;2.20;;;12.00;31.20;;;;;;5061091;28;20216;-58
2022/04/01 11:58:12;;;;;;;3.77;1.93;;;12.30;31.00;;;;;;5047689;28;20197;-59
2022/04/01 12:00:38;;;;;;;2.33;2.10;;;12.00;30.00;;;;;;5064191;28;20224;-59
2022/04/01 12:03:07;;;;;;;1.90;1.80;;;12.30;30.00;;;;;;5066250;28;20545;-58
2022/04/01 12:05:33;;;;;;;2.27;2.07;;;12.10;30.60;;;;;;5051465;28;20264;-58
2022/04/01 12:10:58;;;;;;;3.00;1.90;;;12.50;29.60;;;;;;5054956;28;20223;-59
2022/04/01 12:13:26;;;;;;;5.63;2.17;;;12.40;29.30;;;;;;5051359;28;20191;-58
2022/04/01 12:15:53;;;;;;;3.53;2.33;;;12.50;28.90;;;;;;5054261;28;20200;-58
2022/04/01 12:18:20;;;;;;;4.07;2.03;;;11.70;29.10;;;;;;5058584;28;20316;-61
2022/04/01 12:20:52;;;;;;;2.53;1.97;;;11.50;28.40;;;;;;5065309;28;20204;-63
2022/04/01 12:23:19;;;;;;;2.00;1.80;;;11.90;29.20;;;;;;5064243;28;20209;-59
2022/04/01 12:25:47;;;;;;;1.90;1.80;;;11.60;29.20;;;;;;5065592;28;20594;-60
2022/04/01 12:28:16;;;;;;;6.97;2.03;;;12.90;29.80;;;;;;5053980;28;20684;-60
2022/04/01 12:30:47;;;;;;;6.10;1.87;;;13.20;29.20;;;;;;5052924;28;20226;-59
2022/04/01 12:33:20;;;;;;;4.20;1.90;;;13.30;28.60;;;;;;5052108;28;20196;-59
2022/04/01 12:35:56;;;;;;;2.10;1.80;;;13.40;28.60;;;;;;5045836;28;20199;-59
2022/04/01 12:38:22;;;;;;;2.77;2.00;;;13.80;28.40;;;;;;5055937;28;20197;-59
2022/04/01 12:40:50;;;;;;;3.73;2.43;;;14.00;28.70;;;;;;5062163;28;20197;-60
2022/04/01 12:43:53;;;;;;;4.83;1.63;;;14.10;28.20;;;;;;5060807;28;20213;-60
2022/04/01 12:46:29;;;;;;;4.57;2.10;;;13.60;28.80;;;;;;5062132;28;20194;-60
2022/04/01 12:49:12;;;;;;;4.53;2.23;;;13.20;28.40;;;;;;5050493;28;20235;-59
2022/04/01 12:51:40;;;;;;;4.57;2.20;;;12.90;28.30;;;;;;5057137;28;20232;-59
2022/04/01 12:54:09;;;;;;;4.40;2.20;;;13.70;28.80;;;;;;5056668;28;20739;-60
2022/04/01 12:56:37;;;;;;;3.77;1.90;;;14.40;28.70;;;;;;5063269;28;20283;-59
2022/04/01 12:59:14;;;;;;;3.90;1.57;;;13.90;28.00;;;;;;5051679;28;20217;-59
2022/04/01 13:02:06;;;;;;;4.77;1.90;;;13.70;28.40;;;;;;5061681;28;20197;-59
2022/04/01 13:04:42;;;;;;;5.73;2.60;;;12.70;28.30;;;;;;5056236;28;20748;-59
2022/04/01 13:07:19;;;;;;;8.53;2.17;;;11.50;28.40;;;;;;5059613;28;20216;-59
2022/04/01 13:09:51;;;;;;;3.47;2.53;;;11.90;29.60;;;;;;5065322;28;20250;-59
2022/04/01 13:12:18;;;;;;;4.00;2.30;;;11.50;28.70;;;;;;5049289;28;20214;-59
2022/04/01 13:14:44;;;;;;;6.23;2.40;;;11.70;29.70;;;;;;5049561;28;20190;-59
2022/04/01 13:17:15;;;;;;;3.13;2.20;;;11.70;29.40;;;;;;5050933;28;20718;-58